Ban Gong Hu — BOEY — position and weather

sailwx.info

Track history (hours):
 
Tides and Currents Weather Stations Pressure Air Temp Water Temp Dewpoint Dewpoint Depression Visibility Wind Speed Wind Dir Waves Ship Positions

Ban Gong Hu

Last reported at 2014-Sep-16 21:15 UTC. Time now 2014-Sep-17 03:33 UTC.
Position N 31°48' E 122°54'.

Length 229 m; draft 8.5 m.

Type: Tanker. MMSI: 412371000.

Date/timePositionNaut miles runAvg speedWind from/ knotsBaromVisibWave heightAir tempDewpointWater temp
2014-Sep-16 21:15N 31°48' E 122°54'1313.5
2014-Sep-16 20:19N 31°35' E 122°55'6913.2
2014-Sep-16 15:07N 30°27' E 123°04'912.8
2014-Sep-16 14:23N 30°18' E 123°06'1211.4
2014-Sep-16 13:21N 30°07' E 123°01'1212.2
2014-Sep-16 12:20N 29°59' E 122°51'1212.1
2014-Sep-16 11:21N 29°51' E 122°40'912.0
2014-Sep-16 10:33N 29°45' E 122°31'1211.5
2014-Sep-16 09:32N 29°46' E 122°18'10 9.9
2014-Sep-16 08:33N 29°53' E 122°11'9 8.9
2014-Sep-16 07:33N 29°56' E 122°01'1 0.8
2014-Sep-16 06:26N 29°55' E 121°60'0 0.0
2014-Sep-16 05:26N 29°55' E 121°60'0 0.0
2014-Sep-16 04:32N 29°55' E 121°60'0 0.0
2014-Sep-16 03:26N 29°55' E 121°60'0 0.0
2014-Sep-16 02:14N 29°55' E 121°60'0 0.0
2014-Sep-16 00:32N 29°55' E 121°60'0 0.0
2014-Sep-15 23:26N 29°55' E 121°60'0 0.0
2014-Sep-15 22:32N 29°55' E 121°60'0 0.0
2014-Sep-15 21:26N 29°55' E 121°60'0 0.0
2014-Sep-15 16:14N 29°55' E 121°60'0 0.0
2014-Sep-15 13:31N 29°55' E 121°60'0 0.0
2014-Sep-15 12:25N 29°55' E 121°60'0 0.0
2014-Sep-15 11:31N 29°55' E 121°60'0 0.0
2014-Sep-15 10:13N 29°55' E 121°60'0 0.0
2014-Sep-15 05:25N 29°55' E 121°60'0 0.0
2014-Sep-15 04:25N 29°55' E 121°60'0 0.0
2014-Sep-15 03:13N 29°55' E 121°60'0 0.0
2014-Sep-14 16:07N 29°55' E 121°60'0 0.0
2014-Sep-14 15:31N 29°55' E 121°60'0 0.0
2014-Sep-14 14:07N 29°55' E 121°60'0 0.0
2014-Sep-14 13:19N 29°55' E 121°60'0 0.0
2014-Sep-14 12:31N 29°55' E 121°60'0 0.0
2014-Sep-14 11:25N 29°55' E 121°60'0 0.0
2014-Sep-14 10:13N 29°55' E 121°60'0 0.0
2014-Sep-14 02:05N 29°55' E 121°60'1 1.0
2014-Sep-14 01:32N 29°56' E 121°60'28 7.0
2014-Sep-13 21:32N 29°45' E 122°29'74 7.2
2014-Sep-13 11:15N 30°54' E 122°60'35611.5
2014-Sep-12 04:24N 36°50' E 122°60'1312.6
2014-Sep-12 03:23N 37°03' E 122°60'1112.0
2014-Sep-12 02:28N 37°14' E 122°60'40 9.9
2014-Sep-11 22:28N 37°46' E 122°30'1011.2
2014-Sep-11 21:33N 37°52' E 122°19'1211.9
2014-Sep-11 20:33N 37°58' E 122°06'2511.9
2014-Sep-11 18:25N 38°11' E 121°39'1111.4
2014-Sep-11 17:29N 38°17' E 121°27'3311.3
2014-Sep-11 14:32N 38°34' E 120°51'1411.5
2014-Sep-11 13:20N 38°40' E 120°35'1012.6
2014-Sep-11 12:33N 38°42' E 120°23'1312.7
2014-Sep-11 11:33N 38°46' E 120°08'1512.6
2014-Sep-11 10:20N 38°52' E 119°49'3211.4
2014-Sep-11 07:30N 39°03' E 119°10'6 2.8
2014-Sep-11 05:33N 39°07' E 119°05'0 0.0
2014-Sep-11 04:33N 39°07' E 119°05'0 0.0
2014-Sep-11 03:33N 39°07' E 119°05'0 0.1
2014-Sep-11 02:21N 39°07' E 119°05'4 3.6
2014-Sep-11 01:20N 39°07' E 119°09'2 0.1
2014-Sep-10 04:32N 39°06' E 119°11'4 3.4
2014-Sep-10 03:18N 39°06' E 119°06'0 0.0
2014-Sep-10 02:30N 39°06' E 119°06'0 0.1
2014-Sep-09 23:30N 39°06' E 119°06'0 0.0
2014-Sep-09 17:24N 39°06' E 119°06'6 0.9
2014-Sep-09 11:17N 39°03' E 119°12'16012.6
2014-Sep-08 22:33N 37°54' E 122°16'1413.9
2014-Sep-08 21:33N 37°46' E 122°30'3712.4
2014-Sep-08 18:33N 37°17' E 123°00'1212.3
2014-Sep-08 17:33N 37°05' E 122°60'1111.3
2014-Sep-08 16:32N 36°53' E 122°60'1211.0
2014-Sep-08 15:24N 36°41' E 123°00'34712.7
2014-Sep-07 12:07N 30°54' E 123°02'2513.0
2014-Sep-07 10:14N 30°29' E 123°02'1112.9
2014-Sep-07 09:24N 30°19' E 123°04'4411.0
2014-Sep-07 05:27N 29°46' E 122°32'1112.4
2014-Sep-07 04:33N 29°45' E 122°19'1212.5
2014-Sep-07 03:33N 29°55' E 122°10'9 8.3
2014-Sep-07 02:29N 29°56' E 121°60'0 0.0
2014-Sep-07 01:29N 29°56' E 121°60'0 0.0
2014-Sep-07 00:05N 29°56' E 121°60'0 0.0
2014-Sep-06 21:17N 29°56' E 121°60'  
Track history (hours):
 
Tides and Currents Weather Stations Pressure Air Temp Water Temp Dewpoint Dewpoint Depression Visibility Wind Speed Wind Dir Waves Ship Positions

Ban Gong Hu

Last reported at 2014-Sep-16 21:15 UTC. Time now 2014-Sep-17 03:33 UTC.
Position N 31°48' E 122°54'.

Length 229 m; draft 8.5 m.

Type: Tanker. MMSI: 412371000.

Date/timePositionNaut miles runAvg speedWind from/ knotsBaromVisibWave heightAir tempDewpointWater temp
2014-Sep-16 21:15N 31°48' E 122°54'1313.5
2014-Sep-16 20:19N 31°35' E 122°55'6913.2
2014-Sep-16 15:07N 30°27' E 123°04'912.8
2014-Sep-16 14:23N 30°18' E 123°06'1211.4
2014-Sep-16 13:21N 30°07' E 123°01'1212.2
2014-Sep-16 12:20N 29°59' E 122°51'1212.1
2014-Sep-16 11:21N 29°51' E 122°40'912.0
2014-Sep-16 10:33N 29°45' E 122°31'1211.5
2014-Sep-16 09:32N 29°46' E 122°18'10 9.9
2014-Sep-16 08:33N 29°53' E 122°11'9 8.9
2014-Sep-16 07:33N 29°56' E 122°01'1 0.8
2014-Sep-16 06:26N 29°55' E 121°60'0 0.0
2014-Sep-16 05:26N 29°55' E 121°60'0 0.0
2014-Sep-16 04:32N 29°55' E 121°60'0 0.0
2014-Sep-16 03:26N 29°55' E 121°60'0 0.0
2014-Sep-16 02:14N 29°55' E 121°60'0 0.0
2014-Sep-16 00:32N 29°55' E 121°60'0 0.0
2014-Sep-15 23:26N 29°55' E 121°60'0 0.0
2014-Sep-15 22:32N 29°55' E 121°60'0 0.0
2014-Sep-15 21:26N 29°55' E 121°60'0 0.0
2014-Sep-15 16:14N 29°55' E 121°60'0 0.0
2014-Sep-15 13:31N 29°55' E 121°60'0 0.0
2014-Sep-15 12:25N 29°55' E 121°60'0 0.0
2014-Sep-15 11:31N 29°55' E 121°60'0 0.0
2014-Sep-15 10:13N 29°55' E 121°60'0 0.0
2014-Sep-15 05:25N 29°55' E 121°60'0 0.0
2014-Sep-15 04:25N 29°55' E 121°60'0 0.0
2014-Sep-15 03:13N 29°55' E 121°60'0 0.0
2014-Sep-14 16:07N 29°55' E 121°60'0 0.0
2014-Sep-14 15:31N 29°55' E 121°60'0 0.0
2014-Sep-14 14:07N 29°55' E 121°60'0 0.0
2014-Sep-14 13:19N 29°55' E 121°60'0 0.0
2014-Sep-14 12:31N 29°55' E 121°60'0 0.0
2014-Sep-14 11:25N 29°55' E 121°60'0 0.0
2014-Sep-14 10:13N 29°55' E 121°60'0 0.0
2014-Sep-14 02:05N 29°55' E 121°60'1 1.0
2014-Sep-14 01:32N 29°56' E 121°60'28 7.0
2014-Sep-13 21:32N 29°45' E 122°29'74 7.2
2014-Sep-13 11:15N 30°54' E 122°60'35611.5
2014-Sep-12 04:24N 36°50' E 122°60'1312.6
2014-Sep-12 03:23N 37°03' E 122°60'1112.0
2014-Sep-12 02:28N 37°14' E 122°60'40 9.9
2014-Sep-11 22:28N 37°46' E 122°30'1011.2
2014-Sep-11 21:33N 37°52' E 122°19'1211.9
2014-Sep-11 20:33N 37°58' E 122°06'2511.9
2014-Sep-11 18:25N 38°11' E 121°39'1111.4
2014-Sep-11 17:29N 38°17' E 121°27'3311.3
2014-Sep-11 14:32N 38°34' E 120°51'1411.5
2014-Sep-11 13:20N 38°40' E 120°35'1012.6
2014-Sep-11 12:33N 38°42' E 120°23'1312.7
2014-Sep-11 11:33N 38°46' E 120°08'1512.6
2014-Sep-11 10:20N 38°52' E 119°49'3211.4
2014-Sep-11 07:30N 39°03' E 119°10'6 2.8
2014-Sep-11 05:33N 39°07' E 119°05'0 0.0
2014-Sep-11 04:33N 39°07' E 119°05'0 0.0
2014-Sep-11 03:33N 39°07' E 119°05'0 0.1
2014-Sep-11 02:21N 39°07' E 119°05'4 3.6
2014-Sep-11 01:20N 39°07' E 119°09'2 0.1
2014-Sep-10 04:32N 39°06' E 119°11'4 3.4
2014-Sep-10 03:18N 39°06' E 119°06'0 0.0
2014-Sep-10 02:30N 39°06' E 119°06'0 0.1
2014-Sep-09 23:30N 39°06' E 119°06'0 0.0
2014-Sep-09 17:24N 39°06' E 119°06'6 0.9
2014-Sep-09 11:17N 39°03' E 119°12'16012.6
2014-Sep-08 22:33N 37°54' E 122°16'1413.9
2014-Sep-08 21:33N 37°46' E 122°30'3712.4
2014-Sep-08 18:33N 37°17' E 123°00'1212.3
2014-Sep-08 17:33N 37°05' E 122°60'1111.3
2014-Sep-08 16:32N 36°53' E 122°60'1211.0
2014-Sep-08 15:24N 36°41' E 123°00'34712.7
2014-Sep-07 12:07N 30°54' E 123°02'2513.0
2014-Sep-07 10:14N 30°29' E 123°02'1112.9
2014-Sep-07 09:24N 30°19' E 123°04'4411.0
2014-Sep-07 05:27N 29°46' E 122°32'1112.4
2014-Sep-07 04:33N 29°45' E 122°19'1212.5
2014-Sep-07 03:33N 29°55' E 122°10'9 8.3
2014-Sep-07 02:29N 29°56' E 121°60'0 0.0
2014-Sep-07 01:29N 29°56' E 121°60'0 0.0
2014-Sep-07 00:05N 29°56' E 121°60'0 0.0
2014-Sep-06 21:17N 29°56' E 121°60'  

Dump ship's entire track history